Time;durP1;ratioP1;P1;durP2;ratioP2;P2;SDS_P1;SDS_P2;PMS_P1;PMS_P2;Temp;Humidity;BMP_temperature;BMP_pressure;BME280_temperature;BME280_humidity;BME280_pressure;Samples;Min_cycle;Max_cycle;Signal;HPM_P1;HPM_P2
2023/07/16 00:00:10;;;;;;;8.63;4.63;;;;;;;26.56;51.07;101166.44;6305253;22;20334;-77
2023/07/16 00:02:38;;;;;;;7.50;4.70;;;;;;;26.45;51.15;101165.59;6278112;22;20360;-77
2023/07/16 00:05:04;;;;;;;8.73;4.63;;;;;;;26.39;51.49;101165.84;6304784;22;20380;-76
2023/07/16 00:07:29;;;;;;;9.18;4.60;;;;;;;26.44;50.93;101163.94;6305541;22;20767;-76
2023/07/16 00:09:55;;;;;;;8.73;4.83;;;;;;;26.32;51.45;101153.28;6305708;22;20360;-76
2023/07/16 00:12:20;;;;;;;9.75;4.63;;;;;;;26.20;51.78;101157.31;6304217;22;20795;-76
2023/07/16 00:14:47;;;;;;;8.63;4.40;;;;;;;26.11;51.88;101155.09;6277519;22;20682;-76
2023/07/16 00:17:12;;;;;;;8.55;4.68;;;;;;;26.15;52.04;101160.81;6305246;22;20790;-76
2023/07/16 00:19:38;;;;;;;11.50;4.90;;;;;;;26.23;51.77;101164.94;6304479;22;20338;-75
2023/07/16 00:22:03;;;;;;;10.48;4.90;;;;;;;26.32;51.57;101160.63;6303923;22;20774;-75
2023/07/16 00:24:29;;;;;;;12.32;5.13;;;;;;;26.38;51.17;101156.88;6304574;22;20337;-75
2023/07/16 00:26:54;;;;;;;11.73;4.87;;;;;;;26.41;51.04;101153.59;6304591;22;20411;-76
2023/07/16 00:29:20;;;;;;;8.77;5.10;;;;;;;26.51;50.58;101161.00;6304567;22;20794;-76
2023/07/16 00:31:45;;;;;;;9.43;4.87;;;;;;;26.54;50.76;101154.19;6304963;22;20643;-76
2023/07/16 00:34:12;;;;;;;8.52;4.60;;;;;;;26.42;51.22;101157.97;6304557;22;20428;-76
2023/07/16 00:36:38;;;;;;;7.82;4.55;;;;;;;26.41;51.41;101155.50;6304507;22;20344;-76
2023/07/16 00:39:04;;;;;;;7.97;5.00;;;;;;;26.33;51.44;101151.41;6277493;22;20384;-76
2023/07/16 00:41:29;;;;;;;7.95;4.82;;;;;;;26.11;52.12;101146.94;6304513;22;20329;-76
2023/07/16 00:43:55;;;;;;;9.03;4.70;;;;;;;25.93;52.94;101147.41;6304521;22;20372;-76
2023/07/16 00:46:21;;;;;;;8.83;4.67;;;;;;;25.79;53.27;101152.44;6304409;22;20798;-75
2023/07/16 00:48:47;;;;;;;12.18;5.03;;;;;;;25.81;53.34;101147.53;6304431;22;20365;-75
2023/07/16 00:51:14;;;;;;;9.70;4.80;;;;;;;25.77;53.58;101146.44;6304186;22;20348;-76
2023/07/16 00:53:42;;;;;;;9.20;4.88;;;;;;;25.54;54.15;101147.63;6304475;22;20739;-75
2023/07/16 00:56:08;;;;;;;10.15;4.47;;;;;;;25.40;54.63;101149.94;6304392;22;20775;-76
2023/07/16 00:58:34;;;;;;;13.03;5.00;;;;;;;25.33;55.03;101149.34;6303526;22;20361;-76
2023/07/16 01:01:00;;;;;;;8.80;4.75;;;;;;;25.24;55.21;101145.44;6294118;22;20369;-76
2023/07/16 01:03:26;;;;;;;9.20;4.43;;;;;;;25.26;55.20;101151.47;6295349;22;20406;-76
2023/07/16 01:05:57;;;;;;;7.97;4.80;;;;;;;25.30;55.16;101158.00;6267810;22;20383;-75
2023/07/16 01:08:48;;;;;;;9.00;4.85;;;;;;;25.43;54.69;101154.06;6295334;22;20777;-75
2023/07/16 01:11:15;;;;;;;8.65;4.95;;;;;;;25.36;54.93;101157.78;6283306;22;20364;-75
2023/07/16 01:13:42;;;;;;;9.48;4.85;;;;;;;25.27;54.94;101158.53;6302480;22;20421;-76
2023/07/16 01:16:19;;;;;;;8.43;4.60;;;;;;;25.01;56.14;101163.66;6302835;22;20330;-77
2023/07/16 01:18:45;;;;;;;10.60;5.07;;;;;;;24.86;56.74;101155.38;6302746;22;20399;-76
2023/07/16 01:21:10;;;;;;;8.80;5.27;;;;;;;24.87;56.86;101160.56;6301360;22;20342;-76
2023/07/16 01:23:50;;;;;;;10.80;4.78;;;;;;;24.84;56.67;101149.41;6303407;22;20337;-76
2023/07/16 01:26:31;;;;;;;8.20;5.10;;;;;;;25.00;56.20;101156.63;6277283;22;20397;-75
2023/07/16 01:29:18;;;;;;;8.13;4.43;;;;;;;24.81;57.27;101156.13;6304484;22;20347;-76
2023/07/16 01:31:47;;;;;;;10.70;5.05;;;;;;;24.54;58.34;101158.81;6304293;22;20683;-76
2023/07/16 01:34:14;;;;;;;8.10;5.10;;;;;;;24.45;58.80;101150.25;6303921;22;20352;-76
2023/07/16 01:36:40;;;;;;;9.10;4.95;;;;;;;24.51;58.54;101156.59;6304511;22;20330;-76
2023/07/16 01:39:06;;;;;;;9.48;5.20;;;;;;;24.42;58.67;101148.88;6304350;22;20345;-75
2023/07/16 01:41:31;;;;;;;9.47;5.40;;;;;;;24.42;58.48;101151.59;6304332;22;20836;-75
2023/07/16 01:43:56;;;;;;;10.45;5.28;;;;;;;24.42;58.86;101164.34;6304810;22;20342;-75
2023/07/16 01:46:22;;;;;;;10.23;5.10;;;;;;;24.42;58.74;101156.22;6279425;22;20365;-75
2023/07/16 01:48:47;;;;;;;7.93;5.10;;;;;;;24.39;59.07;101162.94;6304588;22;20837;-76
2023/07/16 01:51:14;;;;;;;10.33;5.40;;;;;;;24.23;59.32;101156.50;6304103;22;20435;-76
2023/07/16 01:53:40;;;;;;;12.38;5.38;;;;;;;24.13;59.84;101160.94;6276996;22;20428;-75
2023/07/16 01:56:05;;;;;;;9.47;5.20;;;;;;;24.12;59.87;101160.13;6304098;22;20362;-76
2023/07/16 01:58:31;;;;;;;8.75;5.90;;;;;;;24.27;59.00;101167.66;6276785;22;20668;-76
2023/07/16 02:00:57;;;;;;;8.57;4.87;;;;;;;24.43;58.48;101161.38;6304033;22;20341;-76
2023/07/16 02:03:22;;;;;;;9.45;5.18;;;;;;;24.58;58.00;101159.97;6303821;22;20783;-75
2023/07/16 02:05:48;;;;;;;9.47;5.53;;;;;;;24.55;58.14;101161.25;6306147;22;20365;-75
2023/07/16 02:08:14;;;;;;;12.50;5.30;;;;;;;24.58;58.13;101168.09;6305835;22;20334;-76
2023/07/16 02:10:39;;;;;;;9.07;5.70;;;;;;;24.24;59.54;101160.84;6304058;22;20651;-76
2023/07/16 02:13:05;;;;;;;10.43;5.40;;;;;;;24.19;59.85;101160.78;6304027;22;20405;-76
2023/07/16 02:15:30;;;;;;;12.18;5.60;;;;;;;24.22;59.51;101165.69;6304819;22;20340;-76
2023/07/16 02:17:56;;;;;;;10.07;5.63;;;;;;;24.24;59.34;101166.28;6305525;22;20425;-75
2023/07/16 02:20:22;;;;;;;10.60;5.60;;;;;;;24.20;59.38;101158.88;6305910;22;20337;-76
2023/07/16 02:22:47;;;;;;;9.65;5.57;;;;;;;24.19;59.20;101158.06;6305792;22;20395;-75
2023/07/16 02:25:12;;;;;;;11.83;5.70;;;;;;;24.34;58.82;101164.75;6305792;22;20499;-77
2023/07/16 02:27:39;;;;;;;12.40;6.00;;;;;;;24.42;58.42;101169.75;6305812;22;20647;-75
2023/07/16 02:30:06;;;;;;;10.93;6.13;;;;;;;24.41;58.69;101178.94;6305867;22;20613;-77
2023/07/16 02:32:33;;;;;;;15.57;5.57;;;;;;;24.32;58.86;101164.19;6305385;22;20334;-75
2023/07/16 02:34:58;;;;;;;10.52;5.82;;;;;;;24.35;58.68;101172.66;6305822;22;20395;-76
2023/07/16 02:37:24;;;;;;;9.93;5.93;;;;;;;24.23;59.05;101175.44;6305739;22;20338;-76
2023/07/16 02:39:49;;;;;;;11.40;6.20;;;;;;;24.32;58.69;101178.56;6278827;22;20403;-75
2023/07/16 02:42:15;;;;;;;10.60;5.97;;;;;;;24.31;58.68;101174.22;6278829;22;20778;-75
2023/07/16 02:44:44;;;;;;;10.30;5.50;;;;;;;24.37;58.46;101177.81;6305535;22;20398;-75
2023/07/16 02:47:11;;;;;;;8.57;5.47;;;;;;;24.14;59.28;101171.53;6305246;22;20334;-75
2023/07/16 02:49:37;;;;;;;9.27;5.47;;;;;;;23.98;59.99;101178.63;6305832;22;20349;-75
2023/07/16 02:52:03;;;;;;;9.27;5.40;;;;;;;24.07;59.74;101176.31;6305556;22;20335;-76
2023/07/16 02:54:28;;;;;;;8.40;5.43;;;;;;;24.18;59.29;101174.56;6305618;22;20338;-76
2023/07/16 02:56:54;;;;;;;10.45;5.82;;;;;;;24.32;58.56;101175.03;6305477;22;20358;-76
2023/07/16 02:59:19;;;;;;;10.37;5.60;;;;;;;24.42;58.31;101177.88;6305643;22;20341;-76
2023/07/16 03:01:44;;;;;;;11.43;5.87;;;;;;;24.43;58.23;101177.63;6305471;22;20652;-76
2023/07/16 03:04:10;;;;;;;11.30;5.50;;;;;;;24.47;57.90;101174.41;6305553;22;20652;-75
2023/07/16 03:06:35;;;;;;;10.23;5.32;;;;;;;24.33;58.54;101179.41;6305465;22;20372;-75
2023/07/16 03:09:01;;;;;;;10.30;5.63;;;;;;;24.26;58.94;101174.16;6305818;22;20342;-76
2023/07/16 03:11:26;;;;;;;7.73;4.93;;;;;;;24.31;58.84;101178.81;6305667;22;20426;-75
2023/07/16 03:13:52;;;;;;;8.57;5.28;;;;;;;23.98;60.06;101181.31;6305562;22;20338;-75
2023/07/16 03:16:17;;;;;;;10.43;5.32;;;;;;;24.05;59.87;101176.56;6305075;22;20687;-76
2023/07/16 03:18:45;;;;;;;7.13;5.10;;;;;;;23.94;60.38;101182.09;6305443;22;20334;-75
2023/07/16 03:21:10;;;;;;;9.13;5.40;;;;;;;23.80;60.70;101181.59;6305715;22;20344;-75
2023/07/16 03:23:36;;;;;;;6.57;4.82;;;;;;;23.91;60.58;101194.22;6305775;22;20334;-76
2023/07/16 03:26:01;;;;;;;10.75;5.82;;;;;;;24.08;60.04;101196.09;6305929;22;20513;-76
2023/07/16 03:28:27;;;;;;;10.30;5.83;;;;;;;24.17;59.75;101183.78;6305506;22;20667;-75
2023/07/16 03:30:53;;;;;;;9.60;5.30;;;;;;;24.30;59.30;101186.13;6304860;22;20338;-77
2023/07/16 03:33:19;;;;;;;11.15;5.43;;;;;;;24.35;59.09;101185.38;6305718;22;20421;-76
2023/07/16 03:35:46;;;;;;;9.93;5.93;;;;;;;24.42;58.75;101191.44;6306497;22;20365;-75
2023/07/16 03:38:11;;;;;;;8.95;5.20;;;;;;;24.40;58.95;101183.56;6305181;22;20342;-76
2023/07/16 03:40:37;;;;;;;8.13;5.50;;;;;;;24.43;59.03;101185.78;6305202;22;20353;-76
2023/07/16 03:43:03;;;;;;;9.02;5.40;;;;;;;24.46;58.75;101197.16;6307848;22;20353;-75
2023/07/16 03:45:28;;;;;;;17.70;5.93;;;;;;;24.53;58.71;101198.66;6306172;22;20358;-75
2023/07/16 03:47:54;;;;;;;10.23;5.60;;;;;;;24.52;58.68;101198.88;6305304;22;20399;-76
2023/07/16 03:50:19;;;;;;;10.50;6.20;;;;;;;24.64;58.43;101204.22;6305182;22;20353;-76
2023/07/16 03:52:45;;;;;;;8.15;5.20;;;;;;;24.83;58.10;101204.69;6305349;22;20749;-76
2023/07/16 03:55:10;;;;;;;10.07;5.77;;;;;;;24.88;57.63;101200.13;6305045;22;20337;-76
2023/07/16 03:57:36;;;;;;;10.30;5.40;;;;;;;24.97;57.49;101209.50;6304862;22;20366;-76
2023/07/16 04:00:04;;;;;;;9.52;5.43;;;;;;;25.03;57.27;101209.53;6277632;22;20377;-76
2023/07/16 04:02:29;;;;;;;12.67;6.17;;;;;;;25.00;57.37;101197.31;6307848;22;20333;-76
2023/07/16 04:04:55;;;;;;;10.32;6.35;;;;;;;25.07;57.31;101211.47;6305366;22;20358;-76
2023/07/16 04:07:20;;;;;;;10.93;5.80;;;;;;;25.18;57.02;101215.13;6302725;22;20637;-76
2023/07/16 04:09:46;;;;;;;10.63;5.37;;;;;;;25.34;56.85;101222.38;6304355;22;20330;-76
2023/07/16 04:12:11;;;;;;;6.55;5.60;;;;;;;25.42;56.65;101209.41;6303534;22;20330;-77
2023/07/16 04:14:37;;;;;;;7.87;5.67;;;;;;;25.43;56.12;101208.34;6304754;22;20365;-76
2023/07/16 04:17:02;;;;;;;9.37;5.90;;;;;;;25.59;55.83;101226.41;6304779;22;20334;-76
2023/07/16 04:19:28;;;;;;;15.43;6.40;;;;;;;25.64;55.73;101218.31;6304499;22;20376;-76
2023/07/16 04:21:53;;;;;;;12.10;6.00;;;;;;;25.79;55.71;101220.31;6304675;22;20340;-76
2023/07/16 04:24:19;;;;;;;10.77;5.70;;;;;;;25.92;55.07;101224.47;6304597;22;20774;-76
2023/07/16 04:26:44;;;;;;;13.70;6.33;;;;;;;25.89;55.21;101219.56;6304628;22;20361;-75
2023/07/16 04:29:10;;;;;;;13.70;6.30;;;;;;;26.03;54.88;101217.25;6304692;22;20345;-76
2023/07/16 04:31:35;;;;;;;9.90;6.10;;;;;;;26.15;54.68;101225.22;6304598;22;20396;-76
2023/07/16 04:34:01;;;;;;;16.33;7.10;;;;;;;26.30;54.33;101226.13;6304677;22;20373;-76
2023/07/16 04:36:26;;;;;;;10.47;6.20;;;;;;;26.37;54.03;101223.16;6299630;22;20828;-75
2023/07/16 04:38:52;;;;;;;8.88;5.85;;;;;;;26.51;53.45;101220.81;6295634;22;20337;-75
2023/07/16 04:41:17;;;;;;;9.27;6.10;;;;;;;26.63;53.20;101217.88;6298163;22;20357;-76
2023/07/16 04:43:43;;;;;;;10.97;6.20;;;;;;;26.65;53.21;101227.44;6301713;22;20336;-76
2023/07/16 04:46:08;;;;;;;10.03;6.50;;;;;;;26.68;52.99;101235.03;6301753;22;20389;-76
2023/07/16 04:48:34;;;;;;;8.70;6.20;;;;;;;26.78;52.76;101226.13;6301476;22;20695;-76
2023/07/16 04:50:59;;;;;;;11.73;6.37;;;;;;;26.87;52.42;101231.88;6301298;22;20372;-76
2023/07/16 04:53:25;;;;;;;8.57;6.07;;;;;;;26.98;52.14;101232.72;6303932;22;20804;-75
2023/07/16 04:55:50;;;;;;;16.00;6.40;;;;;;;27.01;52.40;101224.84;6310464;22;20330;-75
2023/07/16 04:58:16;;;;;;;6.97;6.00;;;;;;;27.20;52.03;101218.88;6311237;22;20366;-75
2023/07/16 05:00:41;;;;;;;9.45;5.97;;;;;;;27.30;51.98;101227.09;6311051;22;20338;-75
2023/07/16 05:03:07;;;;;;;9.45;5.85;;;;;;;27.34;51.61;101225.47;6310093;22;20404;-76
2023/07/16 05:05:33;;;;;;;7.63;6.45;;;;;;;27.44;51.32;101228.22;6305049;22;20448;-76
2023/07/16 05:07:58;;;;;;;9.00;5.97;;;;;;;27.54;51.29;101227.38;6304880;22;20392;-75
2023/07/16 05:10:24;;;;;;;11.07;6.40;;;;;;;27.56;51.12;101232.56;6304590;22;20329;-76
2023/07/16 05:12:49;;;;;;;7.77;6.00;;;;;;;27.78;50.95;101238.53;6304004;22;20334;-76
2023/07/16 05:15:15;;;;;;;12.10;5.73;;;;;;;27.74;50.70;101232.00;6304630;22;20341;-76
2023/07/16 05:17:41;;;;;;;7.88;6.10;;;;;;;27.78;51.01;101241.28;6304836;22;20684;-76
2023/07/16 05:20:07;;;;;;;9.97;6.33;;;;;;;27.90;50.59;101232.88;6304885;22;20417;-76
2023/07/16 05:22:33;;;;;;;11.65;6.50;;;;;;;28.13;50.12;101234.19;6304242;22;20821;-76
2023/07/16 05:24:58;;;;;;;11.70;6.72;;;;;;;28.21;49.88;101227.34;6304385;22;20334;-76
2023/07/16 05:27:24;;;;;;;8.85;6.20;;;;;;;28.23;49.98;101238.78;6303468;22;20415;-75
2023/07/16 05:29:49;;;;;;;14.40;6.60;;;;;;;28.45;49.64;101235.75;6304653;22;20346;-75
2023/07/16 05:32:15;;;;;;;10.60;6.70;;;;;;;28.59;49.43;101241.44;6304088;22;20325;-76
2023/07/16 05:34:40;;;;;;;10.90;6.77;;;;;;;28.64;48.96;101240.63;6303836;22;20345;-76
2023/07/16 05:37:06;;;;;;;11.77;6.70;;;;;;;28.65;49.01;101245.81;6302976;22;20790;-75
2023/07/16 05:39:31;;;;;;;10.48;6.45;;;;;;;28.91;48.87;101245.69;6304054;22;20345;-76
2023/07/16 05:41:57;;;;;;;10.05;6.10;;;;;;;29.23;47.19;101241.72;6308122;22;20359;-76
2023/07/16 05:44:22;;;;;;;11.27;6.23;;;;;;;29.43;47.14;101243.50;6277353;22;20349;-77
2023/07/16 05:46:48;;;;;;;11.97;6.77;;;;;;;29.62;46.97;101249.06;6304290;22;20373;-76
2023/07/16 05:49:13;;;;;;;12.87;7.33;;;;;;;29.77;46.45;101246.25;6303895;22;20342;-76
2023/07/16 05:51:39;;;;;;;10.70;6.73;;;;;;;29.60;46.77;101245.81;6306252;22;20701;-76
2023/07/16 05:54:04;;;;;;;11.75;7.25;;;;;;;29.44;47.05;101248.69;6279006;22;20379;-76
2023/07/16 05:56:30;;;;;;;10.93;7.10;;;;;;;29.49;47.29;101253.28;6305191;22;20748;-76
2023/07/16 05:58:56;;;;;;;13.10;7.17;;;;;;;29.66;46.85;101244.69;6306183;22;20341;-76
2023/07/16 06:01:22;;;;;;;11.83;7.00;;;;;;;29.84;46.11;101241.28;6309382;22;20332;-75
2023/07/16 06:03:47;;;;;;;12.55;6.50;;;;;;;30.09;45.50;101259.38;6306036;22;20354;-75
2023/07/16 06:06:13;;;;;;;9.17;5.80;;;;;;;30.31;44.69;101241.63;6305791;22;21051;-76
2023/07/16 06:08:38;;;;;;;9.10;5.80;;;;;;;30.33;44.34;101244.09;6306332;22;20338;-76
2023/07/16 06:11:05;;;;;;;12.88;6.07;;;;;;;30.40;44.18;101250.06;6305594;22;20376;-76
2023/07/16 06:13:31;;;;;;;8.13;5.60;;;;;;;30.46;44.03;101246.16;6253450;22;20338;-75
2023/07/16 06:15:56;;;;;;;10.73;6.00;;;;;;;30.52;43.72;101244.97;6305969;22;20349;-76
2023/07/16 06:18:22;;;;;;;13.80;6.30;;;;;;;30.58;43.43;101240.28;6306772;22;20330;-76
2023/07/16 06:20:47;;;;;;;11.00;5.90;;;;;;;30.65;43.42;101247.00;6306587;22;20336;-75
2023/07/16 06:23:13;;;;;;;11.48;5.95;;;;;;;30.78;43.34;101241.94;6279944;22;20338;-75
2023/07/16 06:25:44;;;;;;;12.02;6.13;;;;;;;30.88;43.40;101248.09;6305307;22;20437;-75
2023/07/16 06:28:10;;;;;;;9.98;6.10;;;;;;;30.95;42.63;101246.94;6305666;22;20377;-76
2023/07/16 06:30:37;;;;;;;10.55;6.28;;;;;;;30.93;42.79;101244.47;6305764;22;20356;-75
2023/07/16 06:33:02;;;;;;;11.40;6.25;;;;;;;30.79;43.20;101247.13;6305965;22;20345;-75
2023/07/16 06:35:28;;;;;;;9.27;5.90;;;;;;;31.05;42.59;101244.06;6305532;22;20326;-76
2023/07/16 06:37:53;;;;;;;13.10;5.90;;;;;;;31.16;42.31;101242.78;6304910;22;20344;-76
2023/07/16 06:40:18;;;;;;;11.80;6.07;;;;;;;31.22;42.11;101243.53;6305677;22;20338;-76
2023/07/16 06:42:44;;;;;;;11.43;6.13;;;;;;;31.36;41.99;101247.16;6305062;22;20346;-75
2023/07/16 06:45:10;;;;;;;9.33;6.20;;;;;;;31.40;41.78;101247.38;6304479;22;20419;-75
2023/07/16 06:47:35;;;;;;;9.13;5.83;;;;;;;31.35;41.90;101247.44;6306042;22;20689;-76
2023/07/16 06:50:01;;;;;;;11.93;6.78;;;;;;;31.31;42.21;101249.16;6305523;22;20334;-76
2023/07/16 06:52:27;;;;;;;10.15;6.22;;;;;;;31.38;41.76;101242.19;6306375;22;20487;-76
2023/07/16 06:54:53;;;;;;;12.07;6.38;;;;;;;31.44;41.97;101256.63;6279262;22;20771;-76
2023/07/16 06:57:19;;;;;;;11.35;6.68;;;;;;;31.64;41.70;101252.78;6305381;22;20361;-76
2023/07/16 06:59:44;;;;;;;9.45;6.38;;;;;;;31.77;41.66;101245.72;6305508;22;20345;-76
2023/07/16 07:02:10;;;;;;;9.70;6.33;;;;;;;31.77;41.64;101241.03;6305523;22;20671;-76
2023/07/16 07:04:35;;;;;;;11.17;6.47;;;;;;;31.90;41.23;101250.41;6305493;22;20342;-76
2023/07/16 07:07:01;;;;;;;11.57;6.60;;;;;;;31.95;41.14;101235.81;6278573;22;20362;-76
2023/07/16 07:09:26;;;;;;;10.87;6.60;;;;;;;32.06;41.14;101241.94;6305200;22;20352;-76
2023/07/16 07:11:52;;;;;;;13.20;6.87;;;;;;;32.11;40.45;101239.91;6305728;22;20375;-75
2023/07/16 07:14:18;;;;;;;12.80;6.65;;;;;;;32.24;40.35;101245.72;6305331;22;20408;-75
2023/07/16 07:16:43;;;;;;;13.18;6.55;;;;;;;32.22;40.90;101231.50;6305530;22;20334;-76
2023/07/16 07:19:09;;;;;;;10.75;6.50;;;;;;;32.40;40.47;101225.09;6305692;22;20848;-76
2023/07/16 07:21:34;;;;;;;11.33;6.30;;;;;;;32.64;39.69;101233.13;6304977;22;20337;-76
2023/07/16 07:23:59;;;;;;;12.50;6.70;;;;;;;32.60;40.08;101234.88;6305591;22;20790;-76
2023/07/16 07:26:25;;;;;;;10.00;6.33;;;;;;;32.62;40.26;101232.63;6304752;22;20368;-76
2023/07/16 07:28:51;;;;;;;13.00;6.53;;;;;;;32.63;39.72;101223.28;6304942;22;20395;-77
2023/07/16 07:31:16;;;;;;;11.47;6.70;;;;;;;32.67;39.74;101213.31;6305051;22;20632;-75
2023/07/16 07:33:41;;;;;;;12.13;6.77;;;;;;;32.72;39.82;101221.44;6305493;22;20384;-76
2023/07/16 07:36:07;;;;;;;11.27;6.40;;;;;;;32.77;39.66;101223.25;6304698;22;20326;-75
2023/07/16 07:38:32;;;;;;;11.57;6.50;;;;;;;32.91;39.83;101224.03;6306096;22;20410;-75
2023/07/16 07:40:58;;;;;;;11.10;6.50;;;;;;;32.88;39.72;101229.31;6306486;22;20395;-76
2023/07/16 07:43:23;;;;;;;11.95;6.68;;;;;;;32.95;39.35;101226.97;6271603;22;20433;-75
2023/07/16 07:45:49;;;;;;;12.10;6.13;;;;;;;32.91;39.35;101218.53;6294735;22;20663;-75
2023/07/16 07:48:14;;;;;;;12.07;6.43;;;;;;;32.94;39.19;101217.13;6295231;22;20423;-76
2023/07/16 07:50:40;;;;;;;11.35;6.93;;;;;;;33.08;38.99;101214.31;6295037;22;20334;-76
2023/07/16 07:53:06;;;;;;;10.02;6.18;;;;;;;33.20;38.92;101224.78;6295461;22;20342;-76
2023/07/16 07:55:32;;;;;;;8.73;6.13;;;;;;;33.05;39.06;101217.69;6295883;22;20763;-76
2023/07/16 07:57:58;;;;;;;12.85;7.20;;;;;;;33.22;38.88;101222.53;6296023;22;20400;-76
2023/07/16 08:00:23;;;;;;;10.52;6.35;;;;;;;33.00;39.39;101215.06;6298388;22;20338;-76
2023/07/16 08:02:49;;;;;;;10.80;6.80;;;;;;;33.24;39.36;101220.28;6269330;22;20345;-76
2023/07/16 08:05:14;;;;;;;15.45;7.13;;;;;;;33.27;39.28;101216.91;6294916;22;20361;-77
2023/07/16 08:07:40;;;;;;;12.77;6.57;;;;;;;33.50;38.91;101217.75;6267921;22;20357;-76
2023/07/16 08:10:06;;;;;;;8.63;6.18;;;;;;;33.65;38.91;101224.78;6295944;22;20330;-76
2023/07/16 08:12:31;;;;;;;11.00;6.25;;;;;;;33.67;38.49;101225.31;6300093;22;20726;-77
2023/07/16 08:14:56;;;;;;;9.70;6.47;;;;;;;33.67;38.48;101220.63;6301155;22;20334;-76
2023/07/16 08:17:22;;;;;;;10.63;6.70;;;;;;;33.73;38.17;101224.06;6301218;22;20334;-76
2023/07/16 08:19:48;;;;;;;9.57;6.20;;;;;;;33.71;37.97;101220.81;6301248;22;20326;-77
2023/07/16 08:22:13;;;;;;;11.03;7.17;;;;;;;33.76;38.22;101222.59;6303695;22;20336;-76
2023/07/16 08:24:39;;;;;;;10.77;6.90;;;;;;;33.89;37.87;101216.22;6304893;22;20345;-77
2023/07/16 08:27:04;;;;;;;12.40;6.47;;;;;;;33.93;38.02;101219.16;6304824;22;20810;-77
2023/07/16 08:29:30;;;;;;;12.35;6.45;;;;;;;34.03;37.84;101214.19;6305163;22;20342;-76
2023/07/16 08:31:55;;;;;;;11.10;6.20;;;;;;;34.05;37.68;101219.34;6304760;22;20335;-75
2023/07/16 08:34:21;;;;;;;7.50;5.95;;;;;;;33.99;37.79;101215.13;6277547;22;20346;-75
2023/07/16 08:36:46;;;;;;;8.25;5.90;;;;;;;34.16;37.77;101217.13;6300029;22;20855;-76
2023/07/16 08:39:12;;;;;;;8.75;6.15;;;;;;;34.26;37.73;101217.69;6305047;22;20338;-75
2023/07/16 08:41:38;;;;;;;9.60;6.63;;;;;;;34.28;37.59;101212.66;6302554;22;20384;-76
2023/07/16 08:44:04;;;;;;;10.80;6.22;;;;;;;34.36;37.69;101218.50;6303570;22;20410;-75
2023/07/16 08:46:30;;;;;;;13.02;6.45;;;;;;;34.39;37.40;101207.66;6277130;22;20415;-76
2023/07/16 08:48:57;;;;;;;11.60;6.10;;;;;;;34.44;37.48;101204.78;6303722;22;20659;-75
2023/07/16 08:51:23;;;;;;;10.43;6.03;;;;;;;34.64;36.98;101216.31;6304099;22;20337;-75
2023/07/16 08:53:49;;;;;;;10.10;5.70;;;;;;;34.69;36.60;101215.38;6304366;22;20333;-74
2023/07/16 08:56:15;;;;;;;10.63;6.20;;;;;;;34.73;36.80;101213.63;6303798;22;20360;-75
2023/07/16 08:58:42;;;;;;;12.27;6.22;;;;;;;34.92;36.06;101207.81;6303953;22;20706;-75
2023/07/16 09:01:10;;;;;;;10.65;6.10;;;;;;;34.92;36.29;101202.31;6304614;22;20361;-75
2023/07/16 09:03:35;;;;;;;10.80;5.85;;;;;;;35.07;35.85;101203.75;6276714;22;20786;-74
2023/07/16 09:06:02;;;;;;;12.60;6.10;;;;;;;35.18;35.77;101208.59;6303888;22;20357;-76
2023/07/16 09:08:28;;;;;;;16.50;6.27;;;;;;;35.16;35.85;101213.63;6304683;22;20345;-75
2023/07/16 09:10:57;;;;;;;10.10;6.20;;;;;;;35.14;35.91;101207.63;6308260;22;20686;-75
2023/07/16 09:13:28;;;;;;;10.80;5.80;;;;;;;35.23;35.81;101211.22;6310534;22;20338;-74
2023/07/16 09:15:56;;;;;;;10.95;6.18;;;;;;;35.27;35.80;101208.63;6312645;22;20326;-75
2023/07/16 09:18:23;;;;;;;10.93;6.00;;;;;;;35.32;35.83;101208.47;6308060;22;20499;-75
2023/07/16 09:21:01;;;;;;;11.32;5.93;;;;;;;35.30;35.51;101202.47;6303829;22;20349;-77
2023/07/16 09:23:27;;;;;;;13.93;6.57;;;;;;;35.48;35.57;101205.19;6304348;22;20747;-76
2023/07/16 09:25:56;;;;;;;10.13;5.95;;;;;;;35.50;35.29;101206.47;6306043;22;20417;-76
2023/07/16 09:28:22;;;;;;;10.15;5.78;;;;;;;35.59;34.90;101204.50;6305941;22;20416;-76
2023/07/16 09:30:48;;;;;;;13.07;5.97;;;;;;;35.61;35.11;101199.47;6306235;22;20361;-75
2023/07/16 09:33:15;;;;;;;13.45;6.20;;;;;;;35.73;35.49;101200.78;6305628;22;20361;-75
2023/07/16 09:35:41;;;;;;;11.48;6.38;;;;;;;35.88;34.56;101202.19;6306044;22;20767;-75
2023/07/16 09:38:10;;;;;;;12.70;5.35;;;;;;;35.90;34.35;101203.47;6302025;22;20391;-75
2023/07/16 09:40:42;;;;;;;9.97;5.60;;;;;;;36.01;34.05;101200.34;6307478;22;20839;-76
2023/07/16 09:43:09;;;;;;;10.20;5.20;;;;;;;35.99;34.37;101195.16;6305924;22;20334;-76
2023/07/16 09:45:35;;;;;;;12.00;5.83;;;;;;;36.03;34.44;101196.09;6305381;22;20353;-76
2023/07/16 09:48:01;;;;;;;11.18;5.43;;;;;;;36.06;33.95;101203.72;6305435;22;20381;-76
2023/07/16 09:50:33;;;;;;;10.70;5.40;;;;;;;36.03;33.91;101190.56;6305755;22;20402;-76
2023/07/16 09:52:59;;;;;;;10.15;5.50;;;;;;;36.16;33.91;101189.56;6305813;22;20353;-76
2023/07/16 09:55:25;;;;;;;12.02;5.57;;;;;;;36.08;33.93;101179.34;6305698;22;20326;-76
2023/07/16 09:57:56;;;;;;;9.18;4.82;;;;;;;36.06;34.04;101186.38;6307798;22;20440;-75
2023/07/16 10:00:24;;;;;;;8.85;4.80;;;;;;;36.16;33.50;101186.78;6308774;22;20744;-75
2023/07/16 10:02:52;;;;;;;10.10;5.27;;;;;;;36.22;33.74;101183.88;6305468;22;20425;-75
2023/07/16 10:05:17;;;;;;;11.77;5.40;;;;;;;36.28;33.70;101179.78;6306135;22;20369;-75
2023/07/16 10:07:49;;;;;;;12.27;6.50;;;;;;;36.21;33.67;101183.06;6305619;22;20346;-75
2023/07/16 10:10:17;;;;;;;10.48;5.50;;;;;;;36.16;34.02;101184.03;6305486;22;20338;-75
2023/07/16 10:12:54;;;;;;;10.18;5.38;;;;;;;36.13;34.12;101175.63;6305531;22;20374;-75
2023/07/16 10:15:26;;;;;;;9.70;5.45;;;;;;;36.17;33.83;101177.34;6305989;22;20338;-76
2023/07/16 10:17:51;;;;;;;10.40;5.40;;;;;;;36.25;33.99;101169.41;6305127;22;20342;-76
2023/07/16 10:20:27;;;;;;;10.83;5.73;;;;;;;36.29;33.97;101156.56;6305681;22;20651;-76
2023/07/16 10:22:52;;;;;;;10.13;5.57;;;;;;;36.43;33.86;101161.81;6305662;22;20452;-75
2023/07/16 10:25:18;;;;;;;12.03;5.67;;;;;;;36.50;33.58;101170.38;6305123;22;20747;-75
2023/07/16 10:27:47;;;;;;;10.67;5.33;;;;;;;36.50;33.23;101156.56;6306220;22;20334;-75
2023/07/16 10:30:13;;;;;;;8.55;5.03;;;;;;;36.57;32.86;101158.78;6305366;22;20338;-74
2023/07/16 10:32:39;;;;;;;11.20;4.83;;;;;;;36.58;31.87;101155.69;6305125;22;20340;-75
2023/07/16 10:35:06;;;;;;;10.80;5.22;;;;;;;36.50;31.64;101153.81;6305173;22;20326;-76
2023/07/16 10:37:32;;;;;;;9.43;4.88;;;;;;;36.51;31.47;101156.22;6305301;22;20333;-76
2023/07/16 10:39:59;;;;;;;10.95;5.10;;;;;;;36.58;32.20;101141.91;6305200;22;20670;-76
2023/07/16 10:42:26;;;;;;;9.83;4.93;;;;;;;36.52;31.83;101146.81;6305567;22;20334;-75
2023/07/16 10:44:53;;;;;;;8.02;4.90;;;;;;;36.62;31.44;101153.06;6304459;22;20342;-75
2023/07/16 10:47:51;;;;;;;12.38;5.55;;;;;;;36.63;31.48;101138.13;6305043;22;20362;-76
2023/07/16 10:50:18;;;;;;;8.73;4.25;;;;;;;36.60;31.50;101145.13;6294485;22;20350;-75
2023/07/16 10:52:44;;;;;;;7.85;3.92;;;;;;;36.64;31.48;101134.22;6279760;22;20421;-75
2023/07/16 10:55:09;;;;;;;10.90;4.43;;;;;;;36.69;30.68;101139.56;6307639;22;20369;-76
2023/07/16 10:57:35;;;;;;;14.23;4.27;;;;;;;36.71;30.32;101138.06;6305150;22;20396;-75
2023/07/16 11:00:01;;;;;;;7.88;3.80;;;;;;;36.70;29.31;101130.94;6305089;22;20907;-75
2023/07/16 11:02:27;;;;;;;12.32;4.38;;;;;;;36.82;29.23;101138.47;6304834;22;20374;-74
2023/07/16 11:04:53;;;;;;;8.07;4.20;;;;;;;36.82;29.04;101123.84;6305870;22;20334;-75
2023/07/16 11:07:19;;;;;;;7.85;3.78;;;;;;;36.94;28.87;101123.91;6305661;22;20396;-75
2023/07/16 11:09:47;;;;;;;10.30;4.47;;;;;;;36.95;29.04;101119.19;6304569;22;20348;-76
2023/07/16 11:12:14;;;;;;;8.77;4.25;;;;;;;37.16;29.00;101121.94;6305043;22;20417;-75
2023/07/16 11:14:51;;;;;;;9.90;4.60;;;;;;;37.27;29.32;101123.91;6304561;22;20655;-76